CCBMC SCPC-SCAS
Flight info
| Callsign | CCBMC |
|---|---|
| Flight time | 1h 36m |
| Altitude | 29000 |
| Route | ERUKA UQ803 GUTIN DCT TEN UT125 ESGOR |
| Aircraft | SF50/L-BDGRSWY/LB2U2 |
Departure
| Time | 2026-04-12 21:34 |
|---|---|
| Airport | Pucón Airport (SCPC) |
Arrival
| Time | 2026-04-12 23:11 |
|---|---|
| Airport | Cabo Juan Román Airfield (SCAS) |
| Time | Latitude | Longitude | Altitude | Speed | Heading |
|---|---|---|---|---|---|
| 2026-04-12 21:15 | -39.29036 | -71.92097 | 882 ft | 0 kts | 11° |
| 2026-04-12 21:29 | -39.29025 | -71.92110 | 882 ft | 6 kts | 284° |
| 2026-04-12 21:29 | -39.29025 | -71.92173 | 882 ft | 6 kts | 219° |
| 2026-04-12 21:29 | -39.29075 | -71.92189 | 882 ft | 9 kts | 191° |
| 2026-04-12 21:30 | -39.29128 | -71.92189 | 880 ft | 6 kts | 125° |
| 2026-04-12 21:30 | -39.29142 | -71.92123 | 881 ft | 10 kts | 108° |
| 2026-04-12 21:30 | -39.29156 | -71.92025 | 882 ft | 13 kts | 98° |
| 2026-04-12 21:30 | -39.29178 | -71.91898 | 882 ft | 16 kts | 102° |
| 2026-04-12 21:31 | -39.29204 | -71.91739 | 883 ft | 19 kts | 102° |
| 2026-04-12 21:31 | -39.29233 | -71.91560 | 884 ft | 22 kts | 102° |
| 2026-04-12 21:31 | -39.29262 | -71.91362 | 885 ft | 20 kts | 100° |
| 2026-04-12 21:31 | -39.29289 | -71.91214 | 886 ft | 15 kts | 101° |
| 2026-04-12 21:32 | -39.29310 | -71.91091 | 885 ft | 14 kts | 100° |
| 2026-04-12 21:32 | -39.29328 | -71.90966 | 884 ft | 14 kts | 100° |
| 2026-04-12 21:32 | -39.29350 | -71.90842 | 884 ft | 14 kts | 102° |
| 2026-04-12 21:32 | -39.29357 | -71.90731 | 883 ft | 10 kts | 70° |
| 2026-04-12 21:33 | -39.29372 | -71.90719 | 883 ft | 5 kts | 282° |
| 2026-04-12 21:33 | -39.29369 | -71.90736 | 883 ft | 0 kts | 277° |
| 2026-04-12 21:33 | -39.29350 | -71.90864 | 884 ft | 43 kts | 282° |
| 2026-04-12 21:33 | -39.29248 | -71.91483 | 901 ft | 94 kts | 281° |
| 2026-04-12 21:34 | -39.29099 | -71.92415 | 1143 ft | 112 kts | 281° |
| 2026-04-12 21:34 | -39.28938 | -71.93460 | 1442 ft | 128 kts | 281° |
| 2026-04-12 21:34 | -39.28772 | -71.94616 | 1847 ft | 133 kts | 281° |
| 2026-04-12 21:34 | -39.28584 | -71.95799 | 2294 ft | 135 kts | 282° |
| 2026-04-12 21:35 | -39.28365 | -71.96985 | 2736 ft | 138 kts | 284° |
| 2026-04-12 21:35 | -39.28103 | -71.98177 | 3250 ft | 138 kts | 285° |
| 2026-04-12 21:35 | -39.27870 | -71.99425 | 3666 ft | 153 kts | 281° |
| 2026-04-12 21:35 | -39.27889 | -72.00858 | 3982 ft | 168 kts | 249° |
| 2026-04-12 21:36 | -39.28702 | -72.01900 | 4535 ft | 170 kts | 208° |
| 2026-04-12 21:36 | -39.29756 | -72.02608 | 5001 ft | 172 kts | 217° |
| 2026-04-12 21:36 | -39.30674 | -72.03595 | 5502 ft | 172 kts | 223° |
| 2026-04-12 21:36 | -39.31590 | -72.04607 | 5975 ft | 174 kts | 222° |
| 2026-04-12 21:37 | -39.32520 | -72.05618 | 6459 ft | 175 kts | 222° |
| 2026-04-12 21:37 | -39.33441 | -72.06623 | 6919 ft | 177 kts | 222° |
| 2026-04-12 21:37 | -39.34384 | -72.07652 | 7369 ft | 178 kts | 223° |
| 2026-04-12 21:37 | -39.35333 | -72.08693 | 7797 ft | 180 kts | 222° |
| 2026-04-12 21:38 | -39.36290 | -72.09739 | 8235 ft | 181 kts | 223° |
| 2026-04-12 21:38 | -39.37253 | -72.10791 | 8657 ft | 182 kts | 222° |
| 2026-04-12 21:38 | -39.38224 | -72.11852 | 9073 ft | 183 kts | 222° |
| 2026-04-12 21:38 | -39.39201 | -72.12919 | 9475 ft | 185 kts | 222° |
| 2026-04-12 21:39 | -39.40188 | -72.13999 | 9854 ft | 187 kts | 222° |
| 2026-04-12 21:39 | -39.41182 | -72.15085 | 10251 ft | 188 kts | 222° |
| 2026-04-12 21:39 | -39.42182 | -72.16177 | 10624 ft | 189 kts | 222° |
| 2026-04-12 21:39 | -39.43163 | -72.17307 | 10981 ft | 190 kts | 223° |
| 2026-04-12 21:40 | -39.44186 | -72.18385 | 11384 ft | 190 kts | 221° |
| 2026-04-12 21:40 | -39.45206 | -72.19481 | 11766 ft | 191 kts | 222° |
| 2026-04-12 21:40 | -39.46225 | -72.20597 | 12145 ft | 192 kts | 222° |
| 2026-04-12 21:40 | -39.47253 | -72.21725 | 12507 ft | 194 kts | 222° |
| 2026-04-12 21:41 | -39.48287 | -72.22857 | 12898 ft | 195 kts | 222° |
| 2026-04-12 21:41 | -39.49325 | -72.23995 | 13285 ft | 196 kts | 222° |
| 2026-04-12 21:41 | -39.50367 | -72.25138 | 13663 ft | 197 kts | 222° |
| 2026-04-12 21:41 | -39.51414 | -72.26287 | 14034 ft | 198 kts | 222° |
| 2026-04-12 21:42 | -39.52467 | -72.27445 | 14400 ft | 199 kts | 222° |
| 2026-04-12 21:42 | -39.53525 | -72.28608 | 14762 ft | 200 kts | 222° |
| 2026-04-12 21:42 | -39.54591 | -72.29780 | 15119 ft | 202 kts | 222° |
| 2026-04-12 21:42 | -39.55664 | -72.30958 | 15474 ft | 203 kts | 222° |
| 2026-04-12 21:43 | -39.56742 | -72.32145 | 15832 ft | 204 kts | 222° |
| 2026-04-12 21:43 | -39.57825 | -72.33340 | 16183 ft | 205 kts | 222° |
| 2026-04-12 21:43 | -39.58918 | -72.34544 | 16534 ft | 206 kts | 222° |
| 2026-04-12 21:43 | -39.60014 | -72.35752 | 16879 ft | 208 kts | 222° |
| 2026-04-12 21:44 | -39.61118 | -72.36969 | 17225 ft | 209 kts | 222° |
| 2026-04-12 21:44 | -39.62228 | -72.38190 | 17569 ft | 210 kts | 222° |
| 2026-04-12 21:44 | -39.63345 | -72.39421 | 17912 ft | 211 kts | 222° |
| 2026-04-12 21:44 | -39.64466 | -72.40659 | 18252 ft | 212 kts | 222° |
| 2026-04-12 21:45 | -39.65594 | -72.41903 | 18587 ft | 214 kts | 222° |
| 2026-04-12 21:45 | -39.66730 | -72.43157 | 18923 ft | 215 kts | 222° |
| 2026-04-12 21:45 | -39.67858 | -72.44402 | 19251 ft | 216 kts | 222° |
| 2026-04-12 21:45 | -39.69021 | -72.45690 | 19582 ft | 217 kts | 222° |
| 2026-04-12 21:46 | -39.70176 | -72.46964 | 19916 ft | 219 kts | 222° |
| 2026-04-12 21:46 | -39.71337 | -72.48247 | 20256 ft | 220 kts | 222° |
| 2026-04-12 21:46 | -39.72502 | -72.49536 | 20593 ft | 221 kts | 222° |
| 2026-04-12 21:46 | -39.73277 | -72.50394 | 20814 ft | 222 kts | 222° |
| 2026-04-12 21:47 | -39.74479 | -72.51650 | 21152 ft | 223 kts | 214° |
| 2026-04-12 21:47 | -39.76406 | -72.52555 | 21633 ft | 225 kts | 191° |
| 2026-04-12 21:47 | -39.77971 | -72.52710 | 21975 ft | 226 kts | 186° |
| 2026-04-12 21:47 | -39.79537 | -72.52878 | 22332 ft | 225 kts | 187° |
| 2026-04-12 21:48 | -39.81096 | -72.53053 | 22682 ft | 225 kts | 187° |
| 2026-04-12 21:48 | -39.82654 | -72.53216 | 23032 ft | 224 kts | 187° |
| 2026-04-12 21:48 | -39.83705 | -72.53325 | 23256 ft | 224 kts | 187° |
| 2026-04-12 21:48 | -39.85258 | -72.53487 | 23581 ft | 224 kts | 187° |
| 2026-04-12 21:49 | -39.86807 | -72.53650 | 23911 ft | 223 kts | 187° |
| 2026-04-12 21:49 | -39.88358 | -72.53813 | 24232 ft | 223 kts | 187° |
| 2026-04-12 21:49 | -39.89904 | -72.53976 | 24540 ft | 223 kts | 187° |
| 2026-04-12 21:49 | -39.91448 | -72.54138 | 24859 ft | 222 kts | 187° |
| 2026-04-12 21:50 | -39.92972 | -72.54297 | 25156 ft | 222 kts | 187° |
| 2026-04-12 21:50 | -39.94534 | -72.54462 | 25466 ft | 222 kts | 187° |
| 2026-04-12 21:50 | -39.96051 | -72.54620 | 25762 ft | 222 kts | 187° |
| 2026-04-12 21:50 | -39.97588 | -72.54780 | 26041 ft | 222 kts | 187° |
| 2026-04-12 21:51 | -39.99123 | -72.54941 | 26332 ft | 221 kts | 187° |
| 2026-04-12 21:51 | -40.00659 | -72.55102 | 26613 ft | 221 kts | 187° |
| 2026-04-12 21:51 | -40.02191 | -72.55262 | 26887 ft | 221 kts | 187° |
| 2026-04-12 21:51 | -40.03722 | -72.55422 | 27160 ft | 221 kts | 187° |
| 2026-04-12 21:52 | -40.05253 | -72.55583 | 27427 ft | 220 kts | 187° |
| 2026-04-12 21:52 | -40.06779 | -72.55742 | 27690 ft | 220 kts | 187° |
| 2026-04-12 21:52 | -40.08309 | -72.55903 | 27951 ft | 220 kts | 187° |
| 2026-04-12 21:52 | -40.09833 | -72.56062 | 28210 ft | 220 kts | 187° |
| 2026-04-12 21:53 | -40.11355 | -72.56222 | 28459 ft | 220 kts | 187° |
| 2026-04-12 21:53 | -40.12878 | -72.56382 | 28708 ft | 219 kts | 187° |
| 2026-04-12 21:53 | -40.14400 | -72.56542 | 28963 ft | 219 kts | 187° |
| 2026-04-12 21:53 | -40.15948 | -72.56706 | 29000 ft | 229 kts | 187° |
| 2026-04-12 21:54 | -40.17573 | -72.56880 | 29014 ft | 239 kts | 187° |
| 2026-04-12 21:54 | -40.19263 | -72.57059 | 29011 ft | 248 kts | 187° |
| 2026-04-12 21:54 | -40.21013 | -72.57244 | 29011 ft | 256 kts | 186° |
| 2026-04-12 21:54 | -40.22814 | -72.57435 | 29012 ft | 263 kts | 187° |
| 2026-04-12 21:55 | -40.24659 | -72.57630 | 29009 ft | 269 kts | 186° |
| 2026-04-12 21:55 | -40.26542 | -72.57830 | 29011 ft | 274 kts | 187° |
| 2026-04-12 21:55 | -40.28457 | -72.58034 | 29012 ft | 278 kts | 186° |
| 2026-04-12 21:55 | -40.30397 | -72.58240 | 29013 ft | 282 kts | 186° |
| 2026-04-12 21:56 | -40.32361 | -72.58448 | 29012 ft | 285 kts | 186° |
| 2026-04-12 21:56 | -40.34345 | -72.58659 | 29011 ft | 287 kts | 186° |
| 2026-04-12 21:56 | -40.36350 | -72.58872 | 29011 ft | 290 kts | 186° |
| 2026-04-12 21:56 | -40.38368 | -72.59087 | 29010 ft | 292 kts | 186° |
| 2026-04-12 21:57 | -40.40380 | -72.59301 | 29012 ft | 295 kts | 186° |
| 2026-04-12 21:57 | -40.42432 | -72.59519 | 29011 ft | 297 kts | 186° |
| 2026-04-12 21:57 | -40.44499 | -72.59740 | 29009 ft | 299 kts | 186° |
| 2026-04-12 21:57 | -40.46578 | -72.59962 | 29012 ft | 301 kts | 186° |
| 2026-04-12 21:58 | -40.50779 | -72.60408 | 29012 ft | 304 kts | 186° |
| 2026-04-12 21:58 | -40.55025 | -72.60860 | 29011 ft | 308 kts | 186° |
| 2026-04-12 21:59 | -40.59314 | -72.61318 | 29011 ft | 310 kts | 186° |
| 2026-04-12 21:59 | -40.63578 | -72.61773 | 29005 ft | 307 kts | 186° |
| 2026-04-12 22:00 | -40.67851 | -72.62231 | 29005 ft | 308 kts | 186° |
| 2026-04-12 22:00 | -40.72129 | -72.62689 | 29005 ft | 308 kts | 186° |
| 2026-04-12 22:01 | -40.76404 | -72.63147 | 29005 ft | 308 kts | 186° |
| 2026-04-12 22:01 | -40.80673 | -72.63606 | 29005 ft | 308 kts | 186° |
| 2026-04-12 22:02 | -40.84913 | -72.64064 | 29004 ft | 308 kts | 186° |
| 2026-04-12 22:02 | -40.89189 | -72.64525 | 29005 ft | 308 kts | 186° |
| 2026-04-12 22:03 | -40.93471 | -72.64988 | 29004 ft | 308 kts | 186° |
| 2026-04-12 22:03 | -40.97741 | -72.65450 | 29004 ft | 308 kts | 186° |
| 2026-04-12 22:04 | -41.02009 | -72.65913 | 29006 ft | 308 kts | 186° |
| 2026-04-12 22:04 | -41.06274 | -72.66375 | 29003 ft | 307 kts | 186° |
| 2026-04-12 22:05 | -41.10533 | -72.66838 | 29002 ft | 307 kts | 186° |
| 2026-04-12 22:05 | -41.14794 | -72.67301 | 29002 ft | 307 kts | 186° |
| 2026-04-12 22:06 | -41.19061 | -72.67764 | 29003 ft | 308 kts | 186° |
| 2026-04-12 22:06 | -41.23338 | -72.68230 | 29002 ft | 309 kts | 186° |
| 2026-04-12 22:07 | -41.27589 | -72.68693 | 29002 ft | 308 kts | 186° |
| 2026-04-12 22:07 | -41.31875 | -72.69160 | 29003 ft | 309 kts | 186° |
| 2026-04-12 22:08 | -41.36169 | -72.69629 | 29002 ft | 309 kts | 186° |
| 2026-04-12 22:08 | -41.40452 | -72.70098 | 29002 ft | 309 kts | 186° |
| 2026-04-12 22:09 | -41.44724 | -72.70566 | 29002 ft | 307 kts | 186° |
| 2026-04-12 22:09 | -41.48996 | -72.71035 | 28999 ft | 309 kts | 186° |
| 2026-04-12 22:10 | -41.53277 | -72.71506 | 29002 ft | 309 kts | 186° |
| 2026-04-12 22:10 | -41.57549 | -72.71978 | 29001 ft | 307 kts | 186° |
| 2026-04-12 22:11 | -41.61775 | -72.72444 | 29000 ft | 307 kts | 186° |
| 2026-04-12 22:11 | -41.66034 | -72.72914 | 29000 ft | 307 kts | 186° |
| 2026-04-12 22:12 | -41.70293 | -72.73386 | 29000 ft | 307 kts | 186° |
| 2026-04-12 22:12 | -41.74552 | -72.73858 | 28999 ft | 307 kts | 186° |
| 2026-04-12 22:13 | -41.78815 | -72.74331 | 28999 ft | 307 kts | 186° |
| 2026-04-12 22:13 | -41.83074 | -72.74804 | 28999 ft | 307 kts | 186° |
| 2026-04-12 22:14 | -41.87341 | -72.75277 | 28999 ft | 308 kts | 186° |
| 2026-04-12 22:14 | -41.91609 | -72.75752 | 28999 ft | 308 kts | 186° |
| 2026-04-12 22:15 | -41.95872 | -72.76226 | 28998 ft | 307 kts | 186° |
| 2026-04-12 22:15 | -42.00135 | -72.76701 | 28998 ft | 307 kts | 186° |
| 2026-04-12 22:16 | -42.04365 | -72.77173 | 28998 ft | 307 kts | 186° |
| 2026-04-12 22:16 | -42.08624 | -72.77649 | 28997 ft | 307 kts | 186° |
| 2026-04-12 22:17 | -42.12885 | -72.78126 | 28997 ft | 307 kts | 186° |
| 2026-04-12 22:17 | -42.17152 | -72.78604 | 28997 ft | 307 kts | 186° |
| 2026-04-12 22:18 | -42.21414 | -72.79084 | 28997 ft | 307 kts | 186° |
| 2026-04-12 22:18 | -42.25679 | -72.79564 | 28997 ft | 307 kts | 186° |
| 2026-04-12 22:19 | -42.29944 | -72.80045 | 28997 ft | 307 kts | 186° |
| 2026-04-12 22:19 | -42.34174 | -72.80523 | 28996 ft | 306 kts | 186° |
| 2026-04-12 22:20 | -42.38425 | -72.81003 | 28995 ft | 307 kts | 186° |
| 2026-04-12 22:20 | -42.42692 | -72.81379 | 28993 ft | 307 kts | 184° |
| 2026-04-12 22:21 | -42.46965 | -72.81665 | 28993 ft | 307 kts | 185° |
| 2026-04-12 22:21 | -42.51229 | -72.81935 | 28993 ft | 307 kts | 184° |
| 2026-04-12 22:22 | -42.55501 | -72.82211 | 28993 ft | 307 kts | 184° |
| 2026-04-12 22:22 | -42.59767 | -72.82482 | 29698 ft | 302 kts | 186° |
| 2026-04-12 22:23 | -42.61820 | -72.82607 | 29556 ft | 291 kts | 190° |
| 2026-04-12 22:23 | -42.63822 | -72.82739 | 29410 ft | 286 kts | 191° |
| 2026-04-12 22:23 | -42.65811 | -72.82874 | 29266 ft | 286 kts | 191° |
| 2026-04-12 22:23 | -42.67796 | -72.83002 | 29189 ft | 285 kts | 190° |
| 2026-04-12 22:24 | -42.69784 | -72.83129 | 29189 ft | 286 kts | 191° |
| 2026-04-12 22:24 | -42.71771 | -72.83258 | 29191 ft | 287 kts | 191° |
| 2026-04-12 22:24 | -42.73739 | -72.83385 | 29192 ft | 286 kts | 191° |
| 2026-04-12 22:24 | -42.75730 | -72.83513 | 29188 ft | 286 kts | 191° |
| 2026-04-12 22:25 | -42.77717 | -72.83641 | 29184 ft | 286 kts | 191° |
| 2026-04-12 22:25 | -42.79680 | -72.83895 | 29187 ft | 281 kts | 198° |
| 2026-04-12 22:25 | -42.81582 | -72.84456 | 29192 ft | 280 kts | 199° |
| 2026-04-12 22:25 | -42.83496 | -72.84978 | 29189 ft | 281 kts | 198° |
| 2026-04-12 22:26 | -42.85410 | -72.85493 | 29192 ft | 280 kts | 199° |
| 2026-04-12 22:26 | -42.87319 | -72.86028 | 29196 ft | 280 kts | 199° |
| 2026-04-12 22:26 | -42.89226 | -72.86566 | 29178 ft | 280 kts | 199° |
| 2026-04-12 22:26 | -42.91140 | -72.87099 | 29179 ft | 280 kts | 199° |
| 2026-04-12 22:27 | -42.93051 | -72.87630 | 29203 ft | 280 kts | 199° |
| 2026-04-12 22:27 | -42.94957 | -72.88162 | 29176 ft | 279 kts | 199° |
| 2026-04-12 22:27 | -42.96859 | -72.88695 | 29178 ft | 279 kts | 199° |
| 2026-04-12 22:27 | -42.98760 | -72.89227 | 29176 ft | 279 kts | 199° |
| 2026-04-12 22:28 | -43.00664 | -72.89760 | 29181 ft | 279 kts | 199° |
| 2026-04-12 22:28 | -43.02541 | -72.90285 | 29181 ft | 279 kts | 199° |
| 2026-04-12 22:28 | -43.04446 | -72.90819 | 29181 ft | 279 kts | 199° |
| 2026-04-12 22:28 | -43.06349 | -72.91353 | 29181 ft | 279 kts | 199° |
| 2026-04-12 22:29 | -43.08254 | -72.91887 | 29177 ft | 279 kts | 199° |
| 2026-04-12 22:29 | -43.10156 | -72.92420 | 29177 ft | 279 kts | 199° |
| 2026-04-12 22:29 | -43.12055 | -72.92954 | 29177 ft | 279 kts | 199° |
| 2026-04-12 22:29 | -43.13959 | -72.93489 | 29181 ft | 279 kts | 199° |
| 2026-04-12 22:30 | -43.15858 | -72.94023 | 29180 ft | 279 kts | 199° |
| 2026-04-12 22:30 | -43.17759 | -72.94557 | 29180 ft | 279 kts | 199° |
| 2026-04-12 22:30 | -43.19658 | -72.95091 | 29175 ft | 279 kts | 199° |
| 2026-04-12 22:30 | -43.21546 | -72.95622 | 29175 ft | 277 kts | 199° |
| 2026-04-12 22:31 | -43.23434 | -72.96154 | 29178 ft | 277 kts | 199° |
| 2026-04-12 22:31 | -43.25323 | -72.96687 | 29178 ft | 277 kts | 199° |
| 2026-04-12 22:31 | -43.27218 | -72.97221 | 29178 ft | 277 kts | 199° |
| 2026-04-12 22:31 | -43.29108 | -72.97755 | 29178 ft | 277 kts | 199° |
| 2026-04-12 22:32 | -43.30973 | -72.98281 | 29176 ft | 277 kts | 199° |
| 2026-04-12 22:32 | -43.32863 | -72.98815 | 29176 ft | 277 kts | 199° |
| 2026-04-12 22:32 | -43.34756 | -72.99350 | 29174 ft | 277 kts | 199° |
| 2026-04-12 22:32 | -43.36641 | -72.99883 | 29173 ft | 277 kts | 199° |
| 2026-04-12 22:33 | -43.38529 | -73.00419 | 29170 ft | 277 kts | 199° |
| 2026-04-12 22:33 | -43.40417 | -73.00954 | 29170 ft | 277 kts | 199° |
| 2026-04-12 22:33 | -43.42301 | -73.01488 | 29171 ft | 277 kts | 199° |
| 2026-04-12 22:33 | -43.44188 | -73.02023 | 29170 ft | 277 kts | 199° |
| 2026-04-12 22:34 | -43.46075 | -73.02559 | 29169 ft | 277 kts | 199° |
| 2026-04-12 22:34 | -43.47960 | -73.03095 | 29172 ft | 277 kts | 199° |
| 2026-04-12 22:34 | -43.49845 | -73.03635 | 29169 ft | 277 kts | 199° |
| 2026-04-12 22:34 | -43.51731 | -73.04169 | 29167 ft | 277 kts | 199° |
| 2026-04-12 22:35 | -43.53616 | -73.04703 | 29175 ft | 277 kts | 199° |
| 2026-04-12 22:35 | -43.54865 | -73.05054 | 29170 ft | 276 kts | 199° |
| 2026-04-12 22:35 | -43.56747 | -73.05596 | 29169 ft | 276 kts | 199° |
| 2026-04-12 22:35 | -43.59260 | -73.06318 | 29169 ft | 276 kts | 199° |
| 2026-04-12 22:36 | -43.60506 | -73.06673 | 29172 ft | 276 kts | 199° |
| 2026-04-12 22:36 | -43.62388 | -73.07209 | 29171 ft | 276 kts | 199° |
| 2026-04-12 22:36 | -43.64271 | -73.07747 | 29171 ft | 276 kts | 199° |
| 2026-04-12 22:36 | -43.66154 | -73.08287 | 29171 ft | 276 kts | 199° |
| 2026-04-12 22:37 | -43.68035 | -73.08825 | 29174 ft | 276 kts | 199° |
| 2026-04-12 22:37 | -43.69919 | -73.09365 | 29169 ft | 276 kts | 199° |
| 2026-04-12 22:37 | -43.71799 | -73.09904 | 29168 ft | 276 kts | 199° |
| 2026-04-12 22:37 | -43.73682 | -73.10443 | 29168 ft | 276 kts | 199° |
| 2026-04-12 22:38 | -43.75560 | -73.10983 | 29165 ft | 276 kts | 199° |
| 2026-04-12 22:38 | -43.77440 | -73.11522 | 29165 ft | 276 kts | 199° |
| 2026-04-12 22:38 | -43.79320 | -73.12061 | 29164 ft | 276 kts | 199° |
| 2026-04-12 22:38 | -43.81202 | -73.12602 | 29164 ft | 276 kts | 199° |
| 2026-04-12 22:39 | -43.83082 | -73.13142 | 29164 ft | 276 kts | 199° |
| 2026-04-12 22:39 | -43.84962 | -73.13683 | 29164 ft | 276 kts | 199° |
| 2026-04-12 22:39 | -43.86821 | -73.14218 | 29164 ft | 276 kts | 199° |
| 2026-04-12 22:40 | -43.90586 | -73.15301 | 29158 ft | 276 kts | 199° |
| 2026-04-12 22:40 | -43.92467 | -73.15840 | 29156 ft | 276 kts | 199° |
| 2026-04-12 22:40 | -43.94336 | -73.16387 | 29170 ft | 275 kts | 199° |
| 2026-04-12 22:40 | -43.96213 | -73.16930 | 29166 ft | 276 kts | 199° |
| 2026-04-12 22:41 | -43.98094 | -73.17467 | 29165 ft | 275 kts | 199° |
| 2026-04-12 22:41 | -43.99971 | -73.18011 | 29161 ft | 275 kts | 199° |
| 2026-04-12 22:41 | -44.01846 | -73.18564 | 29161 ft | 275 kts | 199° |
| 2026-04-12 22:41 | -44.03722 | -73.19106 | 29160 ft | 275 kts | 199° |
| 2026-04-12 22:42 | -44.05601 | -73.19641 | 29157 ft | 276 kts | 199° |
| 2026-04-12 22:42 | -44.07478 | -73.20186 | 29161 ft | 276 kts | 199° |
| 2026-04-12 22:42 | -44.09333 | -73.20728 | 29157 ft | 276 kts | 199° |
| 2026-04-12 22:42 | -44.11210 | -73.21272 | 29158 ft | 275 kts | 199° |
| 2026-04-12 22:43 | -44.13085 | -73.21816 | 29156 ft | 275 kts | 199° |
| 2026-04-12 22:43 | -44.14958 | -73.22361 | 29160 ft | 275 kts | 199° |
| 2026-04-12 22:43 | -44.16828 | -73.22915 | 29157 ft | 274 kts | 199° |
| 2026-04-12 22:43 | -44.18700 | -73.23462 | 29157 ft | 275 kts | 199° |
| 2026-04-12 22:44 | -44.20574 | -73.23995 | 29155 ft | 275 kts | 199° |
| 2026-04-12 22:44 | -44.22452 | -73.24543 | 29152 ft | 275 kts | 199° |
| 2026-04-12 22:44 | -44.24331 | -73.25095 | 29148 ft | 275 kts | 199° |
| 2026-04-12 22:44 | -44.26203 | -73.25642 | 29148 ft | 275 kts | 199° |
| 2026-04-12 22:45 | -44.28074 | -73.26188 | 29148 ft | 275 kts | 199° |
| 2026-04-12 22:45 | -44.29947 | -73.26735 | 29148 ft | 275 kts | 199° |
| 2026-04-12 22:45 | -44.31794 | -73.27276 | 29148 ft | 275 kts | 199° |
| 2026-04-12 22:45 | -44.33668 | -73.27824 | 29146 ft | 275 kts | 199° |
| 2026-04-12 22:46 | -44.35544 | -73.28369 | 29149 ft | 275 kts | 199° |
| 2026-04-12 22:46 | -44.37417 | -73.28922 | 29148 ft | 275 kts | 199° |
| 2026-04-12 22:46 | -44.39286 | -73.29472 | 29143 ft | 275 kts | 199° |
| 2026-04-12 22:46 | -44.41162 | -73.30021 | 29141 ft | 275 kts | 200° |
| 2026-04-12 22:47 | -44.43031 | -73.30568 | 29140 ft | 275 kts | 200° |
| 2026-04-12 22:47 | -44.44902 | -73.31118 | 29140 ft | 275 kts | 200° |
| 2026-04-12 22:47 | -44.46799 | -73.31676 | 29138 ft | 275 kts | 200° |
| 2026-04-12 22:47 | -44.48647 | -73.32219 | 29137 ft | 275 kts | 199° |
| 2026-04-12 22:48 | -44.50520 | -73.32770 | 29137 ft | 275 kts | 200° |
| 2026-04-12 22:48 | -44.52395 | -73.33323 | 29140 ft | 275 kts | 199° |
| 2026-04-12 22:48 | -44.54275 | -73.33875 | 29138 ft | 275 kts | 200° |
| 2026-04-12 22:48 | -44.56145 | -73.34429 | 29143 ft | 275 kts | 199° |
| 2026-04-12 22:49 | -44.58017 | -73.34984 | 29141 ft | 274 kts | 200° |
| 2026-04-12 22:49 | -44.59887 | -73.35540 | 29134 ft | 275 kts | 199° |
| 2026-04-12 22:49 | -44.61762 | -73.36088 | 29131 ft | 275 kts | 200° |
| 2026-04-12 22:49 | -44.63636 | -73.36646 | 29126 ft | 275 kts | 199° |
| 2026-04-12 22:50 | -44.65509 | -73.37194 | 29129 ft | 275 kts | 199° |
| 2026-04-12 22:50 | -44.67386 | -73.37746 | 29129 ft | 275 kts | 200° |
| 2026-04-12 22:50 | -44.69255 | -73.38307 | 29127 ft | 275 kts | 200° |
| 2026-04-12 22:50 | -44.71126 | -73.38863 | 29129 ft | 275 kts | 199° |
| 2026-04-12 22:51 | -44.72998 | -73.39411 | 29132 ft | 275 kts | 199° |
| 2026-04-12 22:51 | -44.74880 | -73.39954 | 29132 ft | 275 kts | 200° |
| 2026-04-12 22:51 | -44.76744 | -73.40526 | 29128 ft | 274 kts | 200° |
| 2026-04-12 22:51 | -44.78611 | -73.41091 | 29127 ft | 274 kts | 200° |
| 2026-04-12 22:52 | -44.80480 | -73.41644 | 29124 ft | 275 kts | 199° |
| 2026-04-12 22:52 | -44.82324 | -73.42189 | 28998 ft | 273 kts | 200° |
| 2026-04-12 22:52 | -44.84177 | -73.42742 | 28526 ft | 271 kts | 200° |
| 2026-04-12 22:52 | -44.86013 | -73.43288 | 28076 ft | 266 kts | 200° |
| 2026-04-12 22:53 | -44.87829 | -73.43831 | 27457 ft | 267 kts | 200° |
| 2026-04-12 22:53 | -44.89644 | -73.44375 | 26943 ft | 267 kts | 200° |
| 2026-04-12 22:53 | -44.91463 | -73.44918 | 26484 ft | 268 kts | 201° |
| 2026-04-12 22:53 | -44.93291 | -73.45466 | 26107 ft | 270 kts | 201° |
| 2026-04-12 22:54 | -44.95133 | -73.46023 | 25769 ft | 271 kts | 201° |
| 2026-04-12 22:54 | -44.96973 | -73.46686 | 25316 ft | 274 kts | 204° |
| 2026-04-12 22:54 | -44.98819 | -73.47406 | 24861 ft | 276 kts | 204° |
| 2026-04-12 22:54 | -45.00672 | -73.48134 | 24409 ft | 277 kts | 204° |
| 2026-04-12 22:55 | -45.02534 | -73.48865 | 23965 ft | 279 kts | 204° |
| 2026-04-12 22:55 | -45.04410 | -73.49597 | 23489 ft | 280 kts | 204° |
| 2026-04-12 22:55 | -45.06298 | -73.50333 | 22965 ft | 282 kts | 204° |
| 2026-04-12 22:55 | -45.08192 | -73.51076 | 22452 ft | 283 kts | 204° |
| 2026-04-12 22:56 | -45.10096 | -73.51827 | 21941 ft | 285 kts | 204° |
| 2026-04-12 22:56 | -45.12008 | -73.52592 | 21420 ft | 286 kts | 204° |
| 2026-04-12 22:56 | -45.13904 | -73.53357 | 20826 ft | 283 kts | 204° |
| 2026-04-12 22:56 | -45.15738 | -73.54077 | 20216 ft | 259 kts | 204° |
| 2026-04-12 22:57 | -45.17399 | -73.54704 | 19644 ft | 243 kts | 204° |
| 2026-04-12 22:57 | -45.19002 | -73.55282 | 19010 ft | 233 kts | 203° |
| 2026-04-12 22:57 | -45.20655 | -73.55314 | 18369 ft | 245 kts | 181° |
| 2026-04-12 22:57 | -45.22293 | -73.54567 | 17640 ft | 256 kts | 159° |
| 2026-04-12 22:58 | -45.23598 | -73.52791 | 16921 ft | 268 kts | 128° |
| 2026-04-12 22:58 | -45.24459 | -73.50447 | 16251 ft | 267 kts | 119° |
| 2026-04-12 22:58 | -45.25242 | -73.48066 | 15591 ft | 265 kts | 117° |
| 2026-04-12 22:58 | -45.26009 | -73.45697 | 14947 ft | 263 kts | 117° |
| 2026-04-12 22:59 | -45.26772 | -73.43355 | 14318 ft | 260 kts | 117° |
| 2026-04-12 22:59 | -45.27534 | -73.41040 | 13670 ft | 258 kts | 117° |
| 2026-04-12 22:59 | -45.28256 | -73.38729 | 12963 ft | 255 kts | 109° |
| 2026-04-12 22:59 | -45.28501 | -73.36261 | 12267 ft | 251 kts | 90° |
| 2026-04-12 23:00 | -45.28495 | -73.33797 | 11599 ft | 248 kts | 86° |
| 2026-04-12 23:00 | -45.28463 | -73.31370 | 10952 ft | 245 kts | 85° |
| 2026-04-12 23:00 | -45.28426 | -73.28957 | 10313 ft | 243 kts | 86° |
| 2026-04-12 23:00 | -45.28435 | -73.26577 | 9644 ft | 240 kts | 91° |
| 2026-04-12 23:01 | -45.28605 | -73.24260 | 8963 ft | 237 kts | 97° |
| 2026-04-12 23:01 | -45.28857 | -73.21968 | 8286 ft | 233 kts | 98° |
| 2026-04-12 23:01 | -45.29111 | -73.19729 | 7797 ft | 222 kts | 98° |
| 2026-04-12 23:01 | -45.29351 | -73.17646 | 7559 ft | 206 kts | 98° |
| 2026-04-12 23:02 | -45.29649 | -73.15691 | 7328 ft | 201 kts | 103° |
| 2026-04-12 23:02 | -45.30062 | -73.13817 | 7079 ft | 198 kts | 109° |
| 2026-04-12 23:02 | -45.30846 | -73.12232 | 6826 ft | 197 kts | 139° |
| 2026-04-12 23:02 | -45.31898 | -73.10993 | 6577 ft | 197 kts | 142° |
| 2026-04-12 23:03 | -45.32906 | -73.09675 | 6312 ft | 197 kts | 139° |
| 2026-04-12 23:03 | -45.33900 | -73.08347 | 6061 ft | 195 kts | 139° |
| 2026-04-12 23:03 | -45.34882 | -73.07027 | 5813 ft | 193 kts | 139° |
| 2026-04-12 23:03 | -45.35855 | -73.05721 | 5564 ft | 191 kts | 139° |
| 2026-04-12 23:04 | -45.36820 | -73.04431 | 5326 ft | 190 kts | 139° |
| 2026-04-12 23:04 | -45.37782 | -73.03155 | 5072 ft | 189 kts | 139° |
| 2026-04-12 23:04 | -45.38743 | -73.01874 | 4833 ft | 189 kts | 139° |
| 2026-04-12 23:04 | -45.39708 | -73.00605 | 4594 ft | 188 kts | 139° |
| 2026-04-12 23:05 | -45.40663 | -72.99312 | 4307 ft | 198 kts | 134° |
| 2026-04-12 23:05 | -45.41509 | -72.97691 | 4152 ft | 204 kts | 122° |
| 2026-04-12 23:05 | -45.42144 | -72.95981 | 4018 ft | 194 kts | 114° |
| 2026-04-12 23:05 | -45.42593 | -72.94206 | 3781 ft | 191 kts | 102° |
| 2026-04-12 23:06 | -45.42816 | -72.92333 | 3504 ft | 193 kts | 92° |
| 2026-04-12 23:06 | -45.42777 | -72.90456 | 3254 ft | 190 kts | 78° |
| 2026-04-12 23:06 | -45.42413 | -72.88644 | 2948 ft | 188 kts | 70° |
| 2026-04-12 23:06 | -45.42079 | -72.86930 | 2817 ft | 172 kts | 75° |
| 2026-04-12 23:07 | -45.41866 | -72.85326 | 2697 ft | 159 kts | 80° |
| 2026-04-12 23:07 | -45.41762 | -72.83846 | 2596 ft | 143 kts | 77° |
| 2026-04-12 23:07 | -45.41543 | -72.82482 | 2318 ft | 143 kts | 75° |
| 2026-04-12 23:07 | -45.41356 | -72.81085 | 2073 ft | 141 kts | 82° |
| 2026-04-12 23:08 | -45.41294 | -72.79717 | 1916 ft | 136 kts | 90° |
| 2026-04-12 23:08 | -45.41329 | -72.78385 | 1735 ft | 134 kts | 90° |
| 2026-04-12 23:08 | -45.41340 | -72.77044 | 1489 ft | 137 kts | 90° |
| 2026-04-12 23:08 | -45.41287 | -72.75705 | 1322 ft | 134 kts | 81° |
| 2026-04-12 23:09 | -45.41091 | -72.74411 | 1130 ft | 134 kts | 75° |
| 2026-04-12 23:09 | -45.40867 | -72.73144 | 853 ft | 131 kts | 73° |
| 2026-04-12 23:09 | -45.40511 | -72.70950 | 497 ft | 101 kts | 74° |
| 2026-04-12 23:10 | -45.40360 | -72.69974 | 383 ft | 99 kts | 76° |
| 2026-04-12 23:10 | -45.40221 | -72.69030 | 267 ft | 95 kts | 75° |
| 2026-04-12 23:10 | -45.40083 | -72.68131 | 151 ft | 91 kts | 77° |
| 2026-04-12 23:10 | -45.39962 | -72.67349 | 102 ft | 67 kts | 77° |
| 2026-04-12 23:11 | -45.39900 | -72.66958 | 109 ft | 12 kts | 79° |
| 2026-04-12 23:11 | -45.39894 | -72.66909 | 109 ft | 3 kts | 295° |
| 2026-04-12 23:11 | -45.39900 | -72.66949 | 109 ft | 7 kts | 258° |
| 2026-04-12 23:11 | -45.39914 | -72.67040 | 109 ft | 12 kts | 264° |
| 2026-04-12 23:12 | -45.39935 | -72.67176 | 103 ft | 16 kts | 257° |
| 2026-04-12 23:12 | -45.39955 | -72.67319 | 102 ft | 10 kts | 275° |
| 2026-04-12 23:12 | -45.39939 | -72.67403 | 104 ft | 7 kts | 288° |
| 2026-04-12 23:12 | -45.39929 | -72.67450 | 105 ft | 4 kts | 285° |
| 2026-04-12 23:13 | -45.39921 | -72.67490 | 108 ft | 5 kts | 287° |
| 2026-04-12 23:13 | -45.39910 | -72.67542 | 109 ft | 5 kts | 289° |
| 2026-04-12 23:13 | -45.39891 | -72.67575 | 109 ft | 5 kts | 340° |
| 2026-04-12 23:13 | -45.39872 | -72.67582 | 109 ft | 1 kts | 346° |
| 2026-04-12 23:14 | -45.39869 | -72.67583 | 109 ft | 0 kts | 347° |